createdAt,value
2018-04-17T00:01:22.940Z,15.40
2018-04-17T00:03:49.676Z,15.40
2018-04-17T00:06:15.737Z,15.40
2018-04-17T00:08:41.885Z,15.40
2018-04-17T00:11:08.616Z,15.40
2018-04-17T00:13:34.980Z,15.20
2018-04-17T00:16:01.130Z,15.20
2018-04-17T00:18:28.102Z,15.10
2018-04-17T00:20:54.855Z,15.00
2018-04-17T00:23:22.841Z,15.10
2018-04-17T00:25:49.787Z,15.30
2018-04-17T00:28:15.966Z,15.20
2018-04-17T00:30:43.051Z,15.30
2018-04-17T00:33:09.785Z,15.30
2018-04-17T00:35:36.907Z,15.30
2018-04-17T00:38:03.032Z,15.30
2018-04-17T00:40:29.900Z,15.10
2018-04-17T00:42:57.023Z,15.00
2018-04-17T00:45:24.875Z,14.90
2018-04-17T00:47:51.082Z,14.90
2018-04-17T00:50:18.061Z,14.90
2018-04-17T00:52:45.101Z,14.80
2018-04-17T00:55:13.810Z,14.90
2018-04-17T00:57:40.064Z,14.80
2018-04-17T01:00:07.049Z,14.80
2018-04-17T01:02:33.390Z,14.80
2018-04-17T01:04:59.620Z,14.80
2018-04-17T01:07:25.895Z,14.80
2018-04-17T01:09:53.118Z,14.80
2018-04-17T01:12:19.378Z,14.80
2018-04-17T01:14:45.558Z,14.90
2018-04-17T01:17:11.783Z,14.80
2018-04-17T01:19:38.047Z,14.80
2018-04-17T01:22:04.803Z,14.80
2018-04-17T01:24:31.125Z,14.90
2018-04-17T01:26:57.421Z,15.00
2018-04-17T01:29:23.544Z,15.00
2018-04-17T01:31:50.438Z,15.10
2018-04-17T01:34:17.517Z,15.00
2018-04-17T01:36:43.590Z,15.00
2018-04-17T01:39:09.778Z,15.00
2018-04-17T01:41:37.065Z,14.80
2018-04-17T01:44:03.197Z,14.80
2018-04-17T01:46:30.182Z,14.70
2018-04-17T01:48:57.125Z,14.80
2018-04-17T01:51:23.977Z,14.80
2018-04-17T01:53:50.825Z,14.80
2018-04-17T01:56:17.818Z,14.80
2018-04-17T01:58:44.818Z,14.80
2018-04-17T02:01:12.013Z,14.70
2018-04-17T02:03:38.211Z,14.60
2018-04-17T02:06:04.500Z,14.70
2018-04-17T02:08:30.750Z,14.60
2018-04-17T02:10:56.983Z,14.60
2018-04-17T02:13:23.090Z,14.50
2018-04-17T02:15:50.355Z,14.50
2018-04-17T02:18:16.613Z,14.40
2018-04-17T02:20:42.801Z,14.40
2018-04-17T02:23:09.018Z,14.30
2018-04-17T02:25:35.365Z,14.40
2018-04-17T02:28:02.431Z,14.40
2018-04-17T02:30:28.861Z,14.40
2018-04-17T02:32:55.173Z,14.40
2018-04-17T02:35:21.626Z,14.40
2018-04-17T02:37:47.845Z,14.30
2018-04-17T02:40:14.105Z,14.40
2018-04-17T02:42:40.280Z,14.30
2018-04-17T02:45:06.588Z,14.30
2018-04-17T02:47:33.033Z,14.20
2018-04-17T02:50:00.471Z,14.30
2018-04-17T02:52:26.875Z,14.20
2018-04-17T02:54:54.309Z,14.30
2018-04-17T02:57:22.325Z,14.30
2018-04-17T02:59:48.821Z,14.30
2018-04-17T03:02:15.168Z,14.30
2018-04-17T03:04:41.398Z,14.30
2018-04-17T03:07:07.645Z,14.40
2018-04-17T03:09:34.592Z,14.40
2018-04-17T03:12:01.616Z,14.40
2018-04-17T03:14:27.716Z,14.40
2018-04-17T03:16:54.580Z,14.30
2018-04-17T03:19:20.672Z,14.20
2018-04-17T03:21:46.857Z,14.30
2018-04-17T03:24:14.177Z,14.20
2018-04-17T03:26:41.044Z,14.30
2018-04-17T03:29:07.271Z,14.20
2018-04-17T03:31:33.478Z,14.30
2018-04-17T03:34:00.327Z,14.10
2018-04-17T03:36:26.690Z,14.10
2018-04-17T03:38:52.929Z,14.10
2018-04-17T03:41:19.151Z,14.10
2018-04-17T03:43:45.345Z,14.00
2018-04-17T03:46:11.656Z,14.00
2018-04-17T03:48:37.877Z,13.90
2018-04-17T03:51:04.066Z,13.90
2018-04-17T03:53:30.481Z,13.90
2018-04-17T03:55:56.816Z,13.90
2018-04-17T03:58:23.221Z,13.80
2018-04-17T04:00:49.580Z,13.90
2018-04-17T04:03:15.671Z,13.80
2018-04-17T04:05:41.850Z,13.80
2018-04-17T04:08:08.135Z,13.80
2018-04-17T04:10:34.344Z,13.80
2018-04-17T04:13:01.305Z,13.80
2018-04-17T04:15:28.345Z,13.70
2018-04-17T04:18:07.725Z,13.80
2018-04-17T04:20:47.135Z,13.80
2018-04-17T04:23:25.867Z,13.80
2018-04-17T04:26:04.485Z,13.80
2018-04-17T04:28:30.629Z,13.80
2018-04-17T04:30:56.827Z,13.90
2018-04-17T04:33:23.038Z,13.90
2018-04-17T04:35:49.159Z,13.80
2018-04-17T04:38:15.442Z,13.80
2018-04-17T04:40:43.392Z,13.80
2018-04-17T04:43:10.495Z,13.80
2018-04-17T04:45:36.929Z,13.70
2018-04-17T04:48:03.012Z,13.70
2018-04-17T04:50:30.001Z,13.70
2018-04-17T04:52:56.230Z,13.60
2018-04-17T04:55:22.491Z,13.60
2018-04-17T04:57:48.697Z,13.60
2018-04-17T05:00:15.737Z,13.60
2018-04-17T05:02:41.927Z,13.60
2018-04-17T05:05:08.247Z,13.60
2018-04-17T05:07:35.246Z,13.60
2018-04-17T05:10:02.525Z,13.70
2018-04-17T05:12:28.835Z,13.60
2018-04-17T05:14:55.151Z,13.80
2018-04-17T05:17:21.903Z,13.70
2018-04-17T05:19:48.100Z,13.70
2018-04-17T05:22:14.659Z,13.60
2018-04-17T05:24:42.888Z,13.60
2018-04-17T05:27:10.510Z,13.70
2018-04-17T05:29:36.837Z,13.70
2018-04-17T05:32:03.842Z,13.80
2018-04-17T05:34:32.640Z,13.80
2018-04-17T05:37:00.158Z,13.80
2018-04-17T05:39:26.792Z,13.80
2018-04-17T05:41:53.790Z,13.80
2018-04-17T05:44:20.599Z,13.90
2018-04-17T05:46:46.711Z,13.80
2018-04-17T05:49:13.703Z,13.90
2018-04-17T05:51:40.641Z,13.90
2018-04-17T05:54:06.816Z,13.90
2018-04-17T05:56:34.063Z,13.90
2018-04-17T05:59:00.289Z,13.90
2018-04-17T06:01:27.603Z,13.90
2018-04-17T06:03:53.709Z,13.90
2018-04-17T06:06:19.939Z,14.00
2018-04-17T06:08:46.692Z,14.10
2018-04-17T06:11:14.258Z,14.10
2018-04-17T06:13:40.481Z,14.20
2018-04-17T06:16:08.578Z,14.30
2018-04-17T06:18:34.749Z,14.30
2018-04-17T06:21:02.178Z,14.50
2018-04-17T06:23:28.523Z,14.40
2018-04-17T06:25:55.189Z,14.50
2018-04-17T06:28:21.412Z,14.50
2018-04-17T06:30:49.603Z,14.50
2018-04-17T06:33:16.323Z,14.50
2018-04-17T06:35:43.581Z,14.60
2018-04-17T06:38:10.556Z,14.80
2018-04-17T06:40:36.746Z,14.90
2018-04-17T06:43:02.944Z,15.00
2018-04-17T06:45:29.196Z,15.10
2018-04-17T06:47:58.313Z,15.20
2018-04-17T06:50:24.411Z,15.30
2018-04-17T06:52:50.764Z,15.50
2018-04-17T06:55:19.163Z,15.70
2018-04-17T06:57:45.374Z,15.70
2018-04-17T07:00:11.579Z,15.80
2018-04-17T07:02:38.162Z,15.80
2018-04-17T07:05:04.365Z,15.90
2018-04-17T07:07:30.614Z,15.80
2018-04-17T07:09:58.301Z,15.90
2018-04-17T07:12:24.497Z,15.90
2018-04-17T07:14:51.339Z,15.90
2018-04-17T07:17:20.369Z,15.90
2018-04-17T07:19:46.572Z,16.00
2018-04-17T07:22:12.745Z,15.90
2018-04-17T07:24:39.225Z,15.90
2018-04-17T07:27:05.456Z,15.90
2018-04-17T07:29:31.830Z,16.00
2018-04-17T07:31:57.868Z,16.10
2018-04-17T07:34:24.045Z,16.10
2018-04-17T07:36:50.188Z,16.30
2018-04-17T07:39:16.275Z,16.40
2018-04-17T07:41:42.517Z,16.50
2018-04-17T07:44:08.687Z,16.60
2018-04-17T07:46:34.916Z,16.70
2018-04-17T07:49:06.790Z,16.70
2018-04-17T07:51:32.962Z,16.70
2018-04-17T07:53:59.817Z,16.80
2018-04-17T07:56:27.761Z,16.70
2018-04-17T07:58:54.906Z,16.90
2018-04-17T08:01:21.052Z,16.90
2018-04-17T08:03:47.211Z,17.10
2018-04-17T08:06:13.854Z,17.30
2018-04-17T08:08:40.018Z,17.30
2018-04-17T08:11:06.180Z,17.30
2018-04-17T08:13:32.280Z,17.30
2018-04-17T08:15:58.392Z,17.20
2018-04-17T08:18:24.565Z,17.30
2018-04-17T08:20:50.758Z,17.30
2018-04-17T08:23:17.525Z,17.40
2018-04-17T08:25:44.020Z,17.40
2018-04-17T08:28:10.341Z,17.40
2018-04-17T08:30:36.393Z,17.40
2018-04-17T08:33:03.127Z,17.60
2018-04-17T08:35:30.017Z,17.80
2018-04-17T08:37:56.192Z,17.80
2018-04-17T08:40:23.655Z,17.90
2018-04-17T08:42:49.747Z,17.80
2018-04-17T08:45:15.777Z,17.90
2018-04-17T08:47:41.830Z,18.00
2018-04-17T08:50:08.367Z,18.10
2018-04-17T08:52:34.552Z,18.10
2018-04-17T08:55:01.661Z,18.20
2018-04-17T08:57:27.948Z,18.20
2018-04-17T08:59:54.913Z,18.40
2018-04-17T09:02:21.011Z,18.30
2018-04-17T09:04:47.271Z,18.50
2018-04-17T09:07:13.380Z,18.60
2018-04-17T09:09:40.261Z,18.30
2018-04-17T09:12:07.234Z,18.20
2018-04-17T09:14:33.501Z,18.10
2018-04-17T09:17:01.108Z,18.00
2018-04-17T09:19:27.171Z,18.00
2018-04-17T09:21:54.746Z,18.00
2018-04-17T09:24:21.844Z,18.10
2018-04-17T09:26:48.033Z,18.10
2018-04-17T09:29:15.023Z,18.30
2018-04-17T09:31:41.481Z,18.40
2018-04-17T09:34:07.728Z,18.60
2018-04-17T09:36:33.935Z,18.70
2018-04-17T09:39:00.137Z,18.80
2018-04-17T09:41:26.311Z,18.70
2018-04-17T09:43:52.557Z,18.80
2018-04-17T09:46:19.480Z,19.00
2018-04-17T09:48:46.260Z,18.90
2018-04-17T09:51:13.530Z,18.90
2018-04-17T09:53:40.467Z,19.10
2018-04-17T09:56:06.619Z,19.10
2018-04-17T09:58:33.563Z,19.30
2018-04-17T10:01:12.603Z,19.30
2018-04-17T10:03:39.492Z,19.80
2018-04-17T10:06:05.505Z,19.70
2018-04-17T10:08:31.705Z,19.80
2018-04-17T10:10:57.967Z,19.90
2018-04-17T10:13:24.067Z,19.80
2018-04-17T10:15:50.254Z,20.00
2018-04-17T10:18:16.338Z,20.20
2018-04-17T10:20:44.553Z,20.00
2018-04-17T10:23:10.932Z,19.60
2018-04-17T10:25:37.863Z,19.70
2018-04-17T10:28:03.980Z,19.80
2018-04-17T10:30:30.120Z,20.00
2018-04-17T10:32:56.144Z,20.10
2018-04-17T10:35:22.255Z,20.10
2018-04-17T10:37:49.216Z,20.20
2018-04-17T10:40:16.175Z,20.70
2018-04-17T10:42:43.087Z,20.70
2018-04-17T10:45:10.010Z,20.50
2018-04-17T10:47:36.236Z,20.50
2018-04-17T10:50:02.452Z,20.30
2018-04-17T10:52:28.641Z,20.60
2018-04-17T10:54:55.063Z,20.90
2018-04-17T10:57:21.247Z,21.00
2018-04-17T10:59:48.226Z,21.30
2018-04-17T11:02:14.339Z,21.20
2018-04-17T11:04:40.554Z,21.30
2018-04-17T11:07:07.389Z,21.10
2018-04-17T11:09:34.184Z,21.20
2018-04-17T11:12:00.281Z,21.20
2018-04-17T11:14:26.431Z,21.30
2018-04-17T11:16:52.548Z,21.20
2018-04-17T11:19:18.600Z,21.00
2018-04-17T11:21:44.735Z,21.00
2018-04-17T11:24:10.836Z,20.90
2018-04-17T11:26:36.999Z,21.10
2018-04-17T11:29:03.207Z,21.30
2018-04-17T11:31:29.332Z,21.30
2018-04-17T11:33:57.659Z,21.60
2018-04-17T11:36:23.875Z,21.50
2018-04-17T11:38:50.049Z,21.50
2018-04-17T11:41:16.069Z,21.50
2018-04-17T11:43:42.220Z,21.50
2018-04-17T11:46:08.472Z,21.70
2018-04-17T11:48:34.641Z,22.00
2018-04-17T11:51:00.842Z,22.50
2018-04-17T11:53:27.001Z,23.00
2018-04-17T11:55:53.134Z,23.30
2018-04-17T11:58:19.342Z,23.60
2018-04-17T12:00:46.227Z,22.80
2018-04-17T12:03:12.390Z,22.80
2018-04-17T12:05:38.605Z,22.70
2018-04-17T12:08:05.596Z,22.80
2018-04-17T12:10:32.581Z,22.40
2018-04-17T12:12:58.874Z,22.30
2018-04-17T12:15:25.199Z,22.70
2018-04-17T12:17:51.347Z,23.20
2018-04-17T12:20:17.475Z,23.20
2018-04-17T12:22:45.350Z,23.00
2018-04-17T12:25:11.790Z,22.90
2018-04-17T12:27:38.108Z,23.30
2018-04-17T12:30:05.588Z,23.40
2018-04-17T12:32:31.870Z,23.40
2018-04-17T12:34:58.003Z,23.50
2018-04-17T12:37:24.725Z,24.10
2018-04-17T12:39:53.938Z,24.00
2018-04-17T12:42:20.136Z,24.00
2018-04-17T12:44:46.615Z,24.50
2018-04-17T12:47:12.868Z,24.30
2018-04-17T12:49:39.767Z,24.10
2018-04-17T12:52:05.789Z,24.10
2018-04-17T12:54:32.731Z,23.60
2018-04-17T12:56:59.059Z,23.50
2018-04-17T12:59:25.381Z,24.10
2018-04-17T13:01:51.668Z,24.60
2018-04-17T13:04:18.559Z,24.60
2018-04-17T13:06:44.724Z,24.60
2018-04-17T13:09:11.023Z,24.40
2018-04-17T13:11:48.118Z,24.40
2018-04-17T13:14:14.241Z,24.70
2018-04-17T13:16:40.420Z,24.60
2018-04-17T13:19:06.784Z,24.40
2018-04-17T13:21:33.633Z,23.80
2018-04-17T13:23:59.948Z,23.90
2018-04-17T13:26:26.286Z,24.00
2018-04-17T13:28:53.159Z,23.80
2018-04-17T13:31:20.001Z,23.90
2018-04-17T13:33:47.190Z,24.10
2018-04-17T13:36:13.363Z,24.10
2018-04-17T13:38:40.423Z,24.60
2018-04-17T13:41:07.505Z,24.60
2018-04-17T13:43:33.594Z,24.60
2018-04-17T13:46:00.217Z,24.80
2018-04-17T13:48:26.376Z,24.50
2018-04-17T13:50:53.408Z,24.60
2018-04-17T13:53:19.610Z,24.20
2018-04-17T13:55:45.610Z,24.40
2018-04-17T13:58:11.844Z,24.60
2018-04-17T14:00:38.194Z,25.00
2018-04-17T14:03:04.318Z,25.30
2018-04-17T14:05:30.343Z,25.30
2018-04-17T14:07:56.455Z,25.30
2018-04-17T14:10:22.509Z,25.10
2018-04-17T14:12:48.610Z,25.10
2018-04-17T14:15:14.667Z,25.40
2018-04-17T14:17:40.864Z,25.20
2018-04-17T14:20:06.948Z,24.90
2018-04-17T14:22:34.628Z,25.10
2018-04-17T14:25:00.854Z,25.20
2018-04-17T14:27:27.060Z,25.00
2018-04-17T14:29:57.073Z,25.20
2018-04-17T14:32:23.530Z,25.40
2018-04-17T14:34:49.710Z,25.50
2018-04-17T14:37:15.836Z,25.20
2018-04-17T14:39:42.051Z,25.20
2018-04-17T14:42:09.173Z,25.20
2018-04-17T14:44:36.931Z,25.50
2018-04-17T14:47:03.903Z,25.30
2018-04-17T14:49:30.318Z,24.90
2018-04-17T14:51:56.845Z,24.50
2018-04-17T14:54:23.318Z,24.60
2018-04-17T14:56:49.917Z,25.10
2018-04-17T14:59:17.175Z,25.10
2018-04-17T15:01:43.819Z,25.10
2018-04-17T15:04:10.063Z,25.40
2018-04-17T15:06:36.500Z,25.90
2018-04-17T15:09:02.930Z,26.30
2018-04-17T15:11:29.118Z,26.50
2018-04-17T15:13:55.458Z,26.20
2018-04-17T15:16:21.639Z,26.00
2018-04-17T15:18:48.161Z,26.10
2018-04-17T15:21:14.605Z,26.30
2018-04-17T15:23:42.830Z,26.10
2018-04-17T15:26:09.896Z,26.30
2018-04-17T15:28:36.023Z,25.80
2018-04-17T15:31:02.132Z,25.60
2018-04-17T15:33:28.863Z,26.00
2018-04-17T15:35:55.077Z,26.50
2018-04-17T15:38:21.349Z,27.00
2018-04-17T15:40:47.527Z,26.80
2018-04-17T15:43:14.733Z,26.70
2018-04-17T15:45:44.039Z,26.70
2018-04-17T15:48:10.396Z,26.10
2018-04-17T15:50:36.917Z,25.90
2018-04-17T15:53:03.802Z,25.30
2018-04-17T15:55:31.446Z,25.30
2018-04-17T15:57:58.119Z,25.20
2018-04-17T16:00:24.558Z,24.80
2018-04-17T16:02:52.156Z,24.90
2018-04-17T16:05:20.605Z,24.70
2018-04-17T16:07:52.103Z,24.50
2018-04-17T16:10:20.051Z,24.70
2018-04-17T16:12:49.248Z,24.60
2018-04-17T16:15:18.166Z,24.80
2018-04-17T16:17:45.552Z,24.70
2018-04-17T16:20:11.866Z,24.80
2018-04-17T16:22:39.566Z,24.60
2018-04-17T16:25:05.836Z,24.60
2018-04-17T16:27:32.293Z,24.90
2018-04-17T16:29:58.778Z,25.00
2018-04-17T16:32:25.000Z,25.20
2018-04-17T16:34:51.952Z,24.70
2018-04-17T16:37:18.108Z,24.70
2018-04-17T16:39:44.235Z,25.20
2018-04-17T16:42:10.576Z,25.20
2018-04-17T16:44:36.663Z,25.30
2018-04-17T16:47:02.932Z,25.10
2018-04-17T16:49:30.132Z,25.00
2018-04-17T16:51:57.184Z,24.70
2018-04-17T16:54:23.404Z,24.70
2018-04-17T16:56:50.154Z,24.90
2018-04-17T16:59:17.175Z,25.00
2018-04-17T17:01:45.780Z,25.20
2018-04-17T17:04:13.027Z,25.20
2018-04-17T17:06:39.296Z,25.20
2018-04-17T17:09:05.560Z,25.30
2018-04-17T17:11:31.736Z,25.20
2018-04-17T17:13:57.817Z,25.20
2018-04-17T17:16:23.990Z,25.10
2018-04-17T17:18:50.592Z,25.20
2018-04-17T17:21:17.994Z,24.90
2018-04-17T17:23:44.899Z,24.80
2018-04-17T17:26:11.044Z,24.70
2018-04-17T17:28:37.112Z,24.60
2018-04-17T17:31:03.199Z,24.40
2018-04-17T17:33:29.351Z,24.20
2018-04-17T17:35:55.508Z,24.30
2018-04-17T17:38:22.181Z,24.30
2018-04-17T17:40:48.345Z,24.60
2018-04-17T17:43:15.011Z,24.60
2018-04-17T17:45:41.176Z,24.80
2018-04-17T17:48:07.316Z,25.20
2018-04-17T17:50:33.480Z,25.50
2018-04-17T17:52:59.773Z,25.50
2018-04-17T17:55:25.943Z,25.30
2018-04-17T17:57:52.041Z,25.00
2018-04-17T18:00:18.250Z,24.60
2018-04-17T18:02:44.368Z,24.30
2018-04-17T18:05:10.493Z,24.10
2018-04-17T18:07:37.557Z,23.80
2018-04-17T18:10:03.720Z,23.70
2018-04-17T18:12:29.976Z,23.60
2018-04-17T18:14:56.275Z,23.40
2018-04-17T18:17:22.510Z,23.40
2018-04-17T18:19:49.594Z,23.20
2018-04-17T18:22:15.938Z,23.10
2018-04-17T18:24:42.214Z,22.90
2018-04-17T18:27:08.341Z,22.80
2018-04-17T18:29:34.550Z,22.70
2018-04-17T18:32:00.811Z,22.60
2018-04-17T18:34:26.889Z,22.50
2018-04-17T18:36:52.991Z,22.40
2018-04-17T18:39:19.136Z,22.30
2018-04-17T18:41:45.452Z,22.20
2018-04-17T18:44:11.925Z,22.10
2018-04-17T18:46:38.252Z,22.10
2018-04-17T18:49:06.328Z,22.00
2018-04-17T18:51:33.687Z,21.80
2018-04-17T18:53:59.854Z,21.70
2018-04-17T18:56:26.164Z,21.60
2018-04-17T18:58:53.009Z,21.60
2018-04-17T19:01:20.391Z,21.70
2018-04-17T19:03:47.058Z,21.60
2018-04-17T19:06:16.548Z,21.40
2018-04-17T19:08:42.843Z,21.40
2018-04-17T19:11:10.219Z,21.30
2018-04-17T19:13:37.292Z,21.20
2018-04-17T19:16:03.587Z,21.10
2018-04-17T19:18:31.185Z,21.10
2018-04-17T19:20:58.503Z,21.00
2018-04-17T19:23:24.702Z,20.80
2018-04-17T19:25:50.977Z,20.60
2018-04-17T19:28:18.719Z,20.50
2018-04-17T19:30:45.064Z,20.40
2018-04-17T19:33:12.288Z,20.40
2018-04-17T19:35:38.399Z,20.30
2018-04-17T19:38:06.056Z,20.30
2018-04-17T19:40:32.337Z,20.20
2018-04-17T19:42:59.594Z,20.00
2018-04-17T19:45:26.388Z,19.90
2018-04-17T19:47:55.604Z,19.70
2018-04-17T19:50:21.844Z,19.70
2018-04-17T19:52:47.984Z,19.80
2018-04-17T19:55:15.131Z,19.80
2018-04-17T19:57:42.083Z,19.80
2018-04-17T20:00:08.296Z,19.70
2018-04-17T20:02:34.502Z,19.60
2018-04-17T20:05:05.873Z,19.60
2018-04-17T20:07:32.081Z,19.50
2018-04-17T20:09:58.340Z,19.40
2018-04-17T20:12:24.477Z,19.40
2018-04-17T20:14:50.694Z,19.30
2018-04-17T20:17:17.171Z,19.30
2018-04-17T20:19:44.081Z,19.30
2018-04-17T20:22:10.512Z,19.20
2018-04-17T20:24:39.290Z,19.10
2018-04-17T20:29:43.428Z,19.00
2018-04-17T20:32:11.610Z,18.80
2018-04-17T20:37:24.948Z,18.70
2018-04-17T20:39:52.134Z,18.60
2018-04-17T20:42:18.429Z,18.50
2018-04-17T20:44:44.649Z,18.50
2018-04-17T20:47:11.837Z,18.50
2018-04-17T20:49:38.799Z,18.40
2018-04-17T20:52:05.751Z,18.30
2018-04-17T20:54:32.112Z,18.40
2018-04-17T20:56:59.426Z,18.30
2018-04-17T20:59:26.453Z,18.30
2018-04-17T21:01:53.321Z,18.30
2018-04-17T21:04:20.340Z,18.30
2018-04-17T21:06:47.474Z,18.20
2018-04-17T21:09:14.062Z,18.20
2018-04-17T21:11:40.326Z,18.20
2018-04-17T21:14:06.713Z,18.20
2018-04-17T21:16:33.583Z,18.10
2018-04-17T21:18:59.757Z,18.00
2018-04-17T21:21:25.928Z,17.90
2018-04-17T21:23:52.100Z,17.80
2018-04-17T21:26:18.440Z,17.80
2018-04-17T21:28:44.750Z,17.70
2018-04-17T21:31:12.449Z,17.60
2018-04-17T21:33:39.305Z,17.60
2018-04-17T21:36:06.231Z,17.50
2018-04-17T21:38:32.491Z,17.40
2018-04-17T21:40:58.687Z,17.50
2018-04-17T21:43:24.914Z,17.40
2018-04-17T21:45:51.118Z,17.40
2018-04-17T21:48:17.299Z,17.30
2018-04-17T21:50:43.395Z,17.30
2018-04-17T21:53:09.670Z,17.30
2018-04-17T21:55:36.027Z,17.30
2018-04-17T21:58:02.390Z,17.30
2018-04-17T22:00:28.814Z,17.20
2018-04-17T22:02:55.027Z,17.10
2018-04-17T22:05:21.256Z,17.10
2018-04-17T22:07:48.231Z,17.00
2018-04-17T22:10:14.505Z,16.90
2018-04-17T22:12:40.718Z,16.90
2018-04-17T22:15:07.211Z,16.90
2018-04-17T22:17:34.879Z,16.90
2018-04-17T22:20:02.147Z,16.80
2018-04-17T22:22:30.082Z,16.80
2018-04-17T22:24:56.425Z,16.90
2018-04-17T22:27:22.787Z,16.80
2018-04-17T22:29:50.264Z,16.80
2018-04-17T22:32:17.378Z,16.80
2018-04-17T22:34:43.575Z,16.80
2018-04-17T22:37:09.778Z,16.70
2018-04-17T22:39:37.580Z,16.80
2018-04-17T22:42:04.751Z,16.80
2018-04-17T22:44:31.756Z,16.80
2018-04-17T22:47:00.944Z,16.70
2018-04-17T22:49:28.425Z,16.40
2018-04-17T22:51:54.772Z,16.40
2018-04-17T22:54:21.244Z,16.40
2018-04-17T22:56:48.411Z,16.30
2018-04-17T22:59:14.662Z,16.30
2018-04-17T23:01:42.537Z,16.20
2018-04-17T23:04:08.988Z,16.20
2018-04-17T23:06:35.778Z,16.20
2018-04-17T23:09:02.042Z,16.20
2018-04-17T23:11:28.275Z,16.40
2018-04-17T23:13:54.643Z,16.50
2018-04-17T23:16:20.789Z,16.50
2018-04-17T23:18:47.566Z,16.50
2018-04-17T23:21:13.793Z,16.40
2018-04-17T23:23:40.786Z,16.40
2018-04-17T23:26:07.877Z,16.10
2018-04-17T23:28:34.230Z,16.00
2018-04-17T23:31:01.807Z,16.00
2018-04-17T23:33:28.734Z,15.90
2018-04-17T23:35:55.172Z,15.90
2018-04-17T23:38:21.441Z,15.80
2018-04-17T23:40:48.137Z,15.80
2018-04-17T23:43:14.538Z,15.80
2018-04-17T23:45:41.478Z,15.80
2018-04-17T23:48:08.492Z,15.70
2018-04-17T23:50:35.818Z,15.60
2018-04-17T23:53:02.935Z,15.60
2018-04-17T23:55:30.021Z,15.60
2018-04-17T23:57:56.936Z,15.50
